Time;durP1;ratioP1;P1;durP2;ratioP2;P2;SDS_P1;SDS_P2;PMS_P1;PMS_P2;Temp;Humidity;BMP_temperature;BMP_pressure;BME280_temperature;BME280_humidity;BME280_pressure;Samples;Min_cycle;Max_cycle;Signal;HPM_P1;HPM_P2
2022/04/26 03:36:41;;;;;;;;;40.50;34.50;;;;;13.49;51.50;101158.50;5060578;28;45557;-60
2022/04/26 03:39:07;;;;;;;;;37.50;33.25;;;;;13.41;52.62;101149.88;5076825;28;45308;-60
2022/04/26 03:41:34;;;;;;;;;33.75;32.25;;;;;13.49;52.14;101162.06;5076309;28;45362;-60
2022/04/26 03:44:00;;;;;;;;;42.75;36.00;;;;;13.40;51.97;101157.06;5075296;28;48244;-60
2022/04/26 03:46:26;;;;;;;;;33.50;33.00;;;;;13.40;52.58;101157.06;5060858;28;45435;-60
2022/04/26 03:48:52;;;;;;;;;36.25;32.75;;;;;13.41;52.18;101157.94;5061008;28;45471;-60
2022/04/26 03:51:17;;;;;;;;;47.50;38.50;;;;;13.27;52.42;101147.69;5076260;28;45461;-60
2022/04/26 03:53:42;;;;;;;;;38.00;34.50;;;;;13.41;52.42;101165.97;5076173;28;47025;-60
2022/04/26 03:56:08;;;;;;;;;37.75;33.50;;;;;13.41;52.47;101165.97;5060687;28;45327;-60
2022/04/26 03:58:33;;;;;;;;;36.50;32.75;;;;;13.37;52.48;101157.16;5076751;28;45464;-59
2022/04/26 04:01:00;;;;;;;;;37.50;33.50;;;;;13.45;52.69;101170.31;5060664;28;45323;-60
2022/04/26 04:03:26;;;;;;;;;35.50;32.50;;;;;13.48;52.51;101171.06;5059942;28;45254;-60
2022/04/26 04:05:52;;;;;;;;;36.50;32.50;;;;;13.42;52.45;101152.50;5056101;28;45276;-60
2022/04/26 04:08:18;;;;;;;;;35.00;33.00;;;;;13.55;52.48;101168.13;5076372;28;45568;-60
2022/04/26 04:10:44;;;;;;;;;38.75;33.00;;;;;13.43;52.33;101146.22;5076064;28;45478;-60
2022/04/26 04:13:10;;;;;;;;;38.50;35.00;;;;;13.49;52.08;101167.41;5046643;28;45385;-60
2022/04/26 04:15:36;;;;;;;;;39.50;34.00;;;;;13.46;52.15;101164.00;5059179;28;45362;-60
2022/04/26 04:18:01;;;;;;;;;33.75;29.00;;;;;13.51;52.69;101172.72;5060252;28;45484;-60
2022/04/26 04:20:29;;;;;;;;;42.75;37.25;;;;;13.52;52.59;101171.81;5060294;28;45504;-60
2022/04/26 04:22:55;;;;;;;;;36.25;34.00;;;;;13.44;52.59;101168.53;5059741;28;45665;-60
2022/04/26 04:25:22;;;;;;;;;42.50;36.25;;;;;13.42;52.53;101170.41;5060462;28;46111;-60
2022/04/26 04:27:47;;;;;;;;;39.25;34.50;;;;;13.28;52.59;101150.31;5060538;28;45204;-60
2022/04/26 04:30:13;;;;;;;;;40.50;35.50;;;;;13.32;52.65;101167.19;5059712;28;45501;-60
2022/04/26 04:32:39;;;;;;;;;46.00;37.00;;;;;13.22;53.02;101149.66;5059877;28;45702;-60
2022/04/26 04:35:05;;;;;;;;;45.00;39.50;;;;;13.28;52.81;101176.22;5075611;28;45383;-59
2022/04/26 04:37:31;;;;;;;;;45.50;37.25;;;;;13.33;53.02;101187.69;5060053;28;45386;-60
2022/04/26 04:39:57;;;;;;;;;48.00;39.25;;;;;13.33;52.75;101190.38;5075759;28;45512;-60
2022/04/26 04:42:22;;;;;;;;;46.25;36.50;;;;;13.23;53.03;101178.22;5059735;28;45353;-60
2022/04/26 04:44:48;;;;;;;;;39.50;35.00;;;;;13.40;52.89;101210.69;5075712;28;45346;-59
2022/04/26 04:47:13;;;;;;;;;45.25;39.00;;;;;13.40;53.05;101208.00;5060003;28;45377;-60
2022/04/26 04:49:38;;;;;;;;;43.00;36.75;;;;;13.42;53.03;101208.81;5059849;28;45528;-60
2022/04/26 04:52:04;;;;;;;;;50.50;38.75;;;;;13.17;52.85;101171.28;5075105;28;47168;-60
2022/04/26 04:54:29;;;;;;;;;48.00;38.25;;;;;13.36;53.18;101209.03;5058693;28;45244;-60
2022/04/26 04:56:55;;;;;;;;;43.50;37.75;;;;;13.31;53.16;101198.47;5059693;28;45507;-60
2022/04/26 04:59:20;;;;;;;;;45.25;38.75;;;;;13.36;53.08;101209.03;5059963;28;45232;-60
2022/04/26 05:01:45;;;;;;;;;42.25;34.75;;;;;13.38;53.07;101220.59;5059366;28;46163;-62
2022/04/26 05:04:11;;;;;;;;;43.75;38.50;;;;;13.36;53.24;101222.44;5091888;27;45402;-60
2022/04/26 05:06:36;;;;;;;;;47.75;40.25;;;;;13.29;53.24;101205.66;5058397;28;45450;-60
2022/04/26 05:09:02;;;;;;;;;43.25;37.50;;;;;13.44;53.44;101235.59;5059781;28;45634;-60
2022/04/26 05:11:27;;;;;;;;;47.25;39.00;;;;;13.31;53.44;101222.59;5054675;28;46268;-60
2022/04/26 05:13:52;;;;;;;;;48.25;39.25;;;;;13.23;53.16;101210.38;5051061;28;45230;-60
2022/04/26 05:16:18;;;;;;;;;51.25;38.50;;;;;13.32;53.37;101237.78;5075055;28;45339;-60
2022/04/26 05:18:43;;;;;;;;;48.25;40.50;;;;;13.25;53.28;101238.03;5059592;28;45329;-60
2022/04/26 05:21:10;;;;;;;;;49.00;39.75;;;;;13.25;53.62;101256.78;5062733;28;47289;-60
2022/04/26 05:26:19;;;;;;;;;49.00;42.25;;;;;13.14;53.73;101246.44;5059755;28;45402;-60
2022/04/26 05:28:45;;;;;;;;;51.75;41.50;;;;;13.11;53.17;101254.56;5072432;28;45450;-60
2022/04/26 05:31:10;;;;;;;;;50.00;39.50;;;;;13.19;54.03;101257.00;5057772;28;47569;-60
2022/04/26 05:33:36;;;;;;;;;47.50;40.25;;;;;13.18;53.76;101265.97;5074254;28;45445;-60
2022/04/26 05:36:03;;;;;;;;;56.75;44.50;;;;;13.22;54.14;101270.31;5059211;28;45368;-60
2022/04/26 05:38:28;;;;;;;;;49.25;40.00;;;;;13.22;54.18;101270.31;5060409;28;45476;-60
2022/04/26 05:40:54;;;;;;;;;53.25;44.00;;;;;13.24;54.12;101284.53;5071590;28;45353;-60
2022/04/26 05:43:19;;;;;;;;;55.25;43.75;;;;;13.23;54.16;101272.94;5074524;28;45271;-61
2022/04/26 05:45:54;;;;;;;;;53.75;42.00;;;;;13.13;54.04;101264.34;5058029;28;45268;-69
2022/04/26 05:48:20;;;;;;;;;52.50;44.50;;;;;12.90;54.04;101237.44;5057889;28;45390;-69
2022/04/26 05:51:13;;;;;;;;;59.00;45.00;;;;;12.90;54.09;101262.44;5057489;28;47039;-70
2022/04/26 05:53:39;;;;;;;;;54.25;46.50;;;;;12.75;54.29;101260.28;5058287;28;45537;-68
2022/04/26 05:56:05;;;;;;;;;53.75;46.25;;;;;12.51;54.75;101246.75;5057541;28;45526;-68
2022/04/26 05:58:32;;;;;;;;;56.00;45.75;;;;;12.77;54.99;101302.13;5059053;28;45350;-68
2022/04/26 06:00:57;;;;;;;;;60.75;45.25;;;;;12.70;54.78;101278.31;5057509;28;47993;-70
2022/04/26 06:03:23;;;;;;;;;56.25;44.00;;;;;12.73;55.03;101284.44;5058562;28;45340;-60
2022/04/26 06:05:48;;;;;;;;;55.50;45.00;;;;;12.87;55.24;101300.03;5055775;28;45406;-59
2022/04/26 06:08:14;;;;;;;;;61.75;49.75;;;;;12.90;54.86;101304.44;5058996;28;45560;-60
2022/04/26 06:10:40;;;;;;;;;55.50;43.25;;;;;12.78;54.94;101282.47;5077963;27;45544;-61
2022/04/26 06:13:08;;;;;;;;;57.00;45.50;;;;;12.87;54.92;101299.19;5047328;28;45658;-61
2022/04/26 06:15:33;;;;;;;;;54.25;45.50;;;;;12.78;54.86;101277.13;5060084;28;45588;-61
2022/04/26 06:17:59;;;;;;;;;54.50;44.00;;;;;12.89;55.03;101294.63;5081840;27;45830;-61
2022/04/26 06:20:25;;;;;;;;;52.00;43.75;;;;;12.85;54.74;101293.00;5081869;27;48542;-61
2022/04/26 06:22:50;;;;;;;;;55.25;46.00;;;;;12.90;54.77;101294.59;5062729;28;45532;-61
2022/04/26 06:25:16;;;;;;;;;43.25;36.00;;;;;12.87;55.13;101289.31;5061917;28;45300;-61
2022/04/26 06:27:41;;;;;;;;;53.00;43.00;;;;;12.89;55.09;101292.81;5062551;28;45423;-62
2022/04/26 06:30:07;;;;;;;;;52.50;42.25;;;;;12.81;55.10;101284.16;5068247;27;46006;-61
2022/04/26 06:32:32;;;;;;;;;59.50;46.00;;;;;12.82;55.26;101275.22;5062125;28;45268;-62
2022/04/26 06:34:58;;;;;;;;;50.75;42.25;;;;;13.02;55.21;101298.66;5077467;28;45260;-62
2022/04/26 06:37:23;;;;;;;;;53.00;42.25;;;;;12.96;55.01;101285.44;5094561;27;45480;-62
2022/04/26 06:39:53;;;;;;;;;55.25;44.25;;;;;12.97;54.96;101290.75;5063414;28;46818;-61
2022/04/26 06:42:19;;;;;;;;;53.25;44.25;;;;;12.90;54.87;101274.97;5052743;28;45739;-61
2022/04/26 06:44:44;;;;;;;;;56.75;47.00;;;;;13.05;55.01;101298.56;5062015;28;45238;-62
2022/04/26 06:47:09;;;;;;;;;56.00;44.50;;;;;12.94;54.85;101280.16;5060299;28;46116;-62
2022/04/26 06:49:35;;;;;;;;;57.75;46.00;;;;;13.13;54.81;101322.41;5058187;28;46504;-62
2022/04/26 06:52:00;;;;;;;;;60.50;46.75;;;;;13.04;54.52;101303.97;5070408;27;46060;-62
2022/04/26 06:54:26;;;;;;;;;56.75;45.25;;;;;13.11;54.83;101310.88;5063698;28;45638;-61
2022/04/26 06:56:51;;;;;;;;;57.75;46.00;;;;;13.08;54.95;101311.84;5057117;28;45211;-62
2022/04/26 06:59:16;;;;;;;;;54.75;46.00;;;;;13.16;54.87;101314.25;5060047;28;47157;-64
2022/04/26 07:01:42;;;;;;;;;61.25;48.00;;;;;13.23;54.83;101318.50;5076949;28;45387;-64
2022/04/26 07:04:08;;;;;;;;;59.50;46.50;;;;;13.18;54.97;101304.38;5084288;27;45408;-65
2022/04/26 07:06:34;;;;;;;;;59.50;46.25;;;;;12.95;55.02;101271.19;5061121;27;45757;-64
2022/04/26 07:09:01;;;;;;;;;58.00;46.75;;;;;13.29;54.73;101326.31;5078756;27;47473;-63
2022/04/26 07:11:27;;;;;;;;;57.50;47.25;;;;;13.27;54.64;101312.09;5074873;28;45417;-63
2022/04/26 07:13:52;;;;;;;;;60.25;49.00;;;;;13.40;54.35;101335.81;5075217;28;45535;-64
2022/04/26 07:16:18;;;;;;;;;59.00;47.50;;;;;13.18;54.38;101287.41;5083345;27;45529;-64
2022/04/26 07:18:44;;;;;;;;;57.50;46.75;;;;;13.26;54.40;101312.16;5065668;28;47212;-63
2022/04/26 07:21:09;;;;;;;;;59.50;47.50;;;;;13.23;54.59;101302.41;5075302;28;45381;-63
2022/04/26 07:23:34;;;;;;;;;60.25;47.00;;;;;13.26;54.05;101333.59;5059909;28;45481;-64
2022/04/26 07:26:00;;;;;;;;;55.75;47.00;;;;;13.21;54.42;101336.44;5059021;28;45498;-64
2022/04/26 07:28:25;;;;;;;;;53.00;44.50;;;;;13.22;54.20;101338.19;5075699;27;47120;-63
2022/04/26 07:30:51;;;;;;;;;56.50;45.00;;;;;13.22;54.21;101326.59;5059214;28;45299;-63
2022/04/26 07:36:00;;;;;;;;;56.75;47.25;;;;;13.20;54.75;101306.97;5059941;28;45656;-63
2022/04/26 07:38:26;;;;;;;;;55.50;46.50;;;;;13.46;54.22;101340.97;5060467;28;46130;-64
2022/04/26 07:40:51;;;;;;;;;59.75;46.50;;;;;13.23;54.34;101307.78;5072906;28;45451;-63
2022/04/26 07:43:16;;;;;;;;;58.00;45.00;;;;;13.40;54.18;101341.19;5073388;27;45535;-63
2022/04/26 07:45:44;;;;;;;;;54.00;44.75;;;;;13.41;54.20;101342.94;5075346;28;45490;-63
2022/04/26 07:48:10;;;;;;;;;53.75;45.25;;;;;13.52;54.15;101357.75;5090323;27;48278;-63
2022/04/26 07:50:36;;;;;;;;;55.75;44.75;;;;;13.17;54.16;101302.63;5062108;28;45716;-63
2022/04/26 07:53:03;;;;;;;;;61.50;47.50;;;;;13.38;54.10;101360.03;5059224;28;45866;-64
2022/04/26 07:55:30;;;;;;;;;53.00;41.75;;;;;13.41;53.91;101369.78;5059346;28;45784;-64
2022/04/26 07:57:58;;;;;;;;;57.75;43.25;;;;;13.33;53.89;101378.97;5058626;28;45810;-64
2022/04/26 08:00:23;;;;;;;;;57.75;44.25;;;;;13.16;54.07;101365.19;5075550;28;45309;-64
2022/04/26 08:02:49;;;;;;;;;59.50;47.25;;;;;13.03;54.13;101335.25;5059619;28;45423;-64
2022/04/26 08:05:15;;;;;;;;;58.25;47.00;;;;;13.28;54.42;101391.63;5059229;28;45787;-63
2022/04/26 08:07:41;;;;;;;;;55.50;45.50;;;;;13.16;54.31;101366.09;5059785;28;45404;-64
2022/04/26 08:10:11;;;;;;;;;53.50;42.50;;;;;13.14;54.07;101367.06;5075590;28;45618;-63
2022/04/26 08:12:41;;;;;;;;;50.75;42.75;;;;;13.27;53.96;101387.16;5054338;28;45387;-63
2022/04/26 08:15:08;;;;;;;;;56.25;46.50;;;;;13.39;53.98;101388.59;5071774;28;46186;-64
2022/04/26 08:17:33;;;;;;;;;55.25;43.50;;;;;13.09;53.64;101343.06;5059751;28;45694;-63
2022/04/26 08:19:59;;;;;;;;;53.00;43.25;;;;;13.36;54.06;101390.50;5055891;28;45412;-64
2022/04/26 08:22:24;;;;;;;;;56.50;45.25;;;;;13.23;53.86;101371.22;5059217;28;45432;-63
2022/04/26 08:27:35;;;;;;;;;53.75;44.50;;;;;13.45;53.87;101400.94;5059007;28;45779;-63
2022/04/26 08:30:05;;;;;;;;;55.25;44.25;;;;;13.55;53.79;101406.84;5055091;28;45307;-64
2022/04/26 08:32:45;;;;;;;;;58.00;45.75;;;;;13.34;54.03;101371.78;5057142;28;45307;-63
2022/04/26 08:35:13;;;;;;;;;59.25;47.25;;;;;13.37;53.63;101385.09;5052330;28;45508;-69
2022/04/26 08:37:39;;;;;;;;;57.25;45.25;;;;;13.52;53.37;101416.75;5058899;28;45708;-69
2022/04/26 08:40:08;;;;;;;;;57.50;46.50;;;;;13.56;53.86;101408.59;5074571;27;45390;-69
2022/04/26 08:42:38;;;;;;;;;56.50;47.25;;;;;13.38;53.86;101381.50;5085507;27;45391;-64
2022/04/26 08:45:17;;;;;;;;;58.00;46.00;;;;;13.32;53.99;101377.19;5045415;28;45440;-64
2022/04/26 08:53:21;;;;;;;;;55.50;44.75;;;;;13.67;53.59;101401.06;5058230;28;45614;-64
2022/04/26 08:55:49;;;;;;;;;57.50;45.50;;;;;13.76;53.56;101410.59;5073878;28;45937;-65
2022/04/26 08:58:15;;;;;;;;;51.00;41.50;;;;;13.64;53.76;101387.75;5057543;28;47031;-65
2022/04/26 09:01:03;;;;;;;;;53.75;43.75;;;;;13.87;53.35;101428.06;5057325;28;45482;-65
2022/04/26 09:03:33;;;;;;;;;58.00;47.50;;;;;13.99;53.29;101440.19;5058165;28;45424;-64
2022/04/26 09:06:07;;;;;;;;;53.25;44.25;;;;;13.62;53.29;101368.16;5074012;28;45469;-65
2022/04/26 09:08:34;;;;;;;;;52.50;44.75;;;;;14.01;52.53;101432.94;5056911;28;47822;-65
2022/04/26 09:11:06;;;;;;;;;57.00;45.25;;;;;14.08;52.68;101447.91;5074695;28;45953;-65
2022/04/26 09:13:40;;;;;;;;;53.00;43.00;;;;;13.81;52.70;101411.31;5058521;28;45477;-65
2022/04/26 09:16:15;;;;;;;;;54.00;45.25;;;;;14.06;52.73;101459.63;5058500;28;45311;-65
2022/04/26 09:18:51;;;;;;;;;58.25;47.25;;;;;13.63;52.53;101392.25;5068584;28;48435;-65
2022/04/26 09:21:17;;;;;;;;;54.75;46.25;;;;;13.94;52.84;101439.47;5058477;28;45837;-65
2022/04/26 09:23:43;;;;;;;;;55.50;44.75;;;;;13.85;52.40;101421.88;5073923;28;45466;-64
2022/04/26 09:26:14;;;;;;;;;54.50;43.75;;;;;14.15;52.46;101453.03;5058306;28;45705;-65
2022/04/26 09:28:45;;;;;;;;;52.25;42.50;;;;;14.07;52.64;101445.28;5074091;28;47822;-65
2022/04/26 09:31:25;;;;;;;;;52.25;41.00;;;;;13.97;51.89;101423.25;5058574;28;45743;-65
2022/04/26 09:33:56;;;;;;;;;49.75;42.00;;;;;14.20;52.07;101454.66;5073556;28;45528;-65
2022/04/26 09:36:24;;;;;;;;;55.00;45.50;;;;;14.22;52.19;101459.97;5090348;27;45379;-63
2022/04/26 09:38:55;;;;;;;;;53.00;42.75;;;;;14.27;51.93;101466.03;5053592;28;48816;-64
2022/04/26 09:41:21;;;;;;;;;54.75;45.00;;;;;14.29;51.31;101466.84;5073181;28;45679;-63
2022/04/26 09:44:08;;;;;;;;;49.25;40.25;;;;;14.23;51.34;101461.69;5073804;28;45461;-63
2022/04/26 09:46:53;;;;;;;;;53.25;43.75;;;;;14.09;51.89;101448.78;5065216;27;45482;-63
2022/04/26 09:49:24;;;;;;;;;53.25;44.00;;;;;14.20;51.68;101462.72;5059327;28;47491;-63
2022/04/26 09:51:54;;;;;;;;;55.25;44.50;;;;;14.22;51.68;101470.72;5077539;28;45668;-63
2022/04/26 09:54:20;;;;;;;;;56.00;45.00;;;;;14.20;51.80;101476.13;5061573;28;45759;-63
2022/04/26 09:56:46;;;;;;;;;53.75;42.50;;;;;14.18;51.91;101469.94;5076599;28;45922;-63
2022/04/26 09:59:25;;;;;;;;;51.50;43.50;;;;;14.12;51.52;101447.81;5077672;28;46716;-63
2022/04/26 10:01:54;;;;;;;;;53.00;43.75;;;;;14.16;51.61;101452.13;5081521;27;45324;-63
2022/04/26 10:04:22;;;;;;;;;52.75;44.00;;;;;14.20;51.20;101456.44;5060784;28;45445;-63
2022/04/26 10:06:52;;;;;;;;;53.75;44.25;;;;;14.23;51.43;101473.34;5060254;28;45712;-64
2022/04/26 10:09:18;;;;;;;;;52.00;43.75;;;;;14.31;51.38;101482.91;5061696;28;45503;-64
2022/04/26 10:11:44;;;;;;;;;54.50;42.50;;;;;14.20;51.29;101457.34;5057152;28;45834;-63
2022/04/26 10:14:11;;;;;;;;;51.50;42.00;;;;;14.23;51.26;101459.00;5057318;28;45371;-63
2022/04/26 10:16:37;;;;;;;;;58.75;44.50;;;;;14.29;51.47;101449.88;5061069;28;45575;-63
2022/04/26 10:19:08;;;;;;;;;52.75;43.00;;;;;14.37;51.18;101472.84;5076088;27;47221;-63
2022/04/26 10:21:39;;;;;;;;;51.50;43.00;;;;;14.52;51.47;101489.31;5061249;28;45296;-63
2022/04/26 10:24:05;;;;;;;;;55.00;44.25;;;;;14.52;51.55;101490.19;5061215;28;45425;-63
2022/04/26 10:26:31;;;;;;;;;60.50;47.00;;;;;14.50;51.50;101491.16;5059127;28;45606;-63
2022/04/26 10:29:01;;;;;;;;;52.25;43.50;;;;;14.51;51.54;101504.53;5076671;28;47105;-64
2022/04/26 10:31:35;;;;;;;;;56.00;45.75;;;;;14.53;51.48;101510.72;5061342;28;45389;-63
2022/04/26 10:34:14;;;;;;;;;55.75;45.50;;;;;14.36;51.50;101460.31;5057997;28;47409;-62
2022/04/26 10:36:40;;;;;;;;;49.75;42.00;;;;;14.32;51.59;101447.94;5055176;28;45766;-62
2022/04/26 10:39:05;;;;;;;;;53.75;43.75;;;;;14.66;51.12;101499.59;5061827;28;46189;-62
2022/04/26 10:41:44;;;;;;;;;50.00;40.25;;;;;14.62;50.86;101501.50;5061604;28;45408;-62
2022/04/26 10:44:32;;;;;;;;;48.50;40.75;;;;;14.62;50.41;101501.50;5076059;28;45457;-62
2022/04/26 10:47:03;;;;;;;;;48.25;39.25;;;;;14.62;50.26;101504.19;5077392;28;45407;-62
2022/04/26 10:49:32;;;;;;;;;48.75;40.00;;;;;14.62;50.69;101505.06;5060188;28;47295;-62
2022/04/26 10:52:23;;;;;;;;;51.50;41.25;;;;;14.64;50.44;101499.63;5061547;28;45317;-62
2022/04/26 10:54:51;;;;;;;;;51.00;42.00;;;;;14.74;50.24;101502.88;5059711;28;45300;-62
2022/04/26 10:57:27;;;;;;;;;53.75;43.75;;;;;14.69;50.18;101480.66;5060093;28;45428;-62
2022/04/26 10:59:56;;;;;;;;;48.75;42.00;;;;;14.65;50.35;101474.53;5061600;28;45322;-62
2022/04/26 11:02:23;;;;;;;;;57.25;43.75;;;;;14.55;50.04;101462.31;5061144;28;45295;-62
2022/04/26 11:05:03;;;;;;;;;52.00;41.25;;;;;14.64;50.10;101470.09;5061335;28;45284;-62
2022/04/26 11:07:29;;;;;;;;;48.50;40.00;;;;;14.86;49.77;101497.00;5062878;28;45328;-62
2022/04/26 11:09:56;;;;;;;;;53.75;42.75;;;;;14.89;50.00;101502.28;5061861;28;45592;-62
2022/04/26 11:12:24;;;;;;;;;52.25;42.75;;;;;14.75;50.02;101475.94;5043989;28;45934;-62
2022/04/26 11:14:55;;;;;;;;;50.25;40.25;;;;;14.88;49.74;101502.34;5057614;28;45977;-61
2022/04/26 11:17:24;;;;;;;;;51.25;41.00;;;;;14.84;49.56;101488.13;5055656;28;45866;-62
2022/04/26 11:19:55;;;;;;;;;48.75;37.50;;;;;14.63;49.51;101463.84;5050335;28;45545;-62
2022/04/26 11:22:23;;;;;;;;;46.25;39.00;;;;;14.83;50.02;101491.75;5072214;28;46026;-62
2022/04/26 11:30:31;;;;;;;;;46.50;39.50;;;;;14.69;49.62;101454.66;5056981;28;45928;-62
2022/04/26 11:33:18;;;;;;;;;49.75;41.00;;;;;14.81;49.72;101474.81;5056861;28;45525;-62
2022/04/26 11:35:44;;;;;;;;;52.00;41.50;;;;;14.90;49.79;101493.28;5055508;28;46104;-62
2022/04/26 11:38:15;;;;;;;;;49.25;39.00;;;;;14.90;50.00;101485.22;5057227;28;45420;-61
2022/04/26 11:40:44;;;;;;;;;48.75;42.50;;;;;14.97;49.66;101502.00;5055986;28;46104;-61
2022/04/26 11:43:12;;;;;;;;;48.50;37.75;;;;;14.98;50.00;101496.56;5055533;28;45826;-62
2022/04/26 11:45:39;;;;;;;;;48.00;40.00;;;;;14.73;49.79;101450.03;5072436;27;45480;-62
2022/04/26 11:48:20;;;;;;;;;48.25;41.75;;;;;14.96;49.86;101484.97;5055354;28;45599;-62
2022/04/26 11:50:48;;;;;;;;;47.50;38.00;;;;;14.92;49.40;101469.03;5057009;28;46812;-62
2022/04/26 11:53:15;;;;;;;;;48.75;39.75;;;;;15.12;49.80;101492.47;5055526;28;45356;-62
2022/04/26 11:55:43;;;;;;;;;46.75;37.75;;;;;15.15;49.59;101498.59;5056689;28;45668;-62
2022/04/26 11:58:32;;;;;;;;;44.75;39.00;;;;;15.20;49.50;101498.38;5072273;28;45495;-62
2022/04/26 12:01:16;;;;;;;;;51.50;42.00;;;;;15.07;49.21;101471.13;5045497;28;46910;-62
2022/04/26 12:03:52;;;;;;;;;42.00;35.25;;;;;15.27;49.33;101497.22;5056544;28;45438;-62
2022/04/26 12:06:20;;;;;;;;;50.75;40.50;;;;;15.01;49.14;101455.22;5050329;28;45478;-62
2022/04/26 12:08:54;;;;;;;;;46.25;39.00;;;;;15.21;49.13;101489.38;5056823;28;45511;-62
2022/04/26 12:11:21;;;;;;;;;41.00;37.00;;;;;15.15;49.34;101489.63;5055992;28;46678;-61
2022/04/26 12:14:12;;;;;;;;;49.75;40.00;;;;;15.12;49.36;101495.16;5055596;28;46157;-61
2022/04/26 12:16:44;;;;;;;;;47.50;40.00;;;;;15.17;49.49;101487.75;5048411;28;45887;-62
2022/04/26 12:19:11;;;;;;;;;46.50;37.25;;;;;15.25;49.32;101501.78;5067576;28;46166;-62
2022/04/26 12:22:03;;;;;;;;;45.75;37.00;;;;;15.21;49.68;101493.91;5069151;28;46424;-62
2022/04/26 12:24:44;;;;;;;;;48.75;39.00;;;;;15.21;49.48;101484.00;5054883;28;45481;-62
2022/04/26 12:27:14;;;;;;;;;46.75;38.75;;;;;15.08;49.81;101455.84;5056017;28;45552;-61
2022/04/26 12:29:44;;;;;;;;;41.75;36.00;;;;;15.33;49.51;101490.69;5054850;28;45654;-62
2022/04/26 12:32:15;;;;;;;;;47.00;38.25;;;;;15.32;49.36;101497.03;5055768;28;45936;-61
2022/04/26 12:34:48;;;;;;;;;42.00;35.75;;;;;15.19;49.07;101483.19;5055508;28;46282;-61
2022/04/26 12:37:21;;;;;;;;;45.00;37.25;;;;;14.98;49.16;101442.78;5055381;28;45664;-61
2022/04/26 12:39:53;;;;;;;;;43.00;38.00;;;;;15.23;49.60;101481.25;5066363;28;45511;-61
2022/04/26 12:42:28;;;;;;;;;41.50;34.00;;;;;15.36;49.07;101498.66;5071205;28;48213;-61
2022/04/26 12:44:55;;;;;;;;;46.50;36.00;;;;;15.31;49.24;101484.50;5054255;28;45450;-62
2022/04/26 12:52:56;;;;;;;;;39.00;34.00;;;;;15.37;49.14;101479.75;5055494;28;46192;-62
2022/04/26 12:55:38;;;;;;;;;42.00;35.75;;;;;15.51;49.17;101479.19;5055419;28;45501;-62
2022/04/26 12:58:12;;;;;;;;;38.75;33.75;;;;;15.55;48.71;101488.00;5070430;28;45544;-62
2022/04/26 13:00:43;;;;;;;;;30.75;29.50;;;;;15.45;48.75;101471.38;5081122;27;47035;-62
2022/04/26 13:03:10;;;;;;;;;37.00;33.00;;;;;15.25;48.33;101426.47;5052921;28;48170;-61
2022/04/26 13:05:44;;;;;;;;;38.75;34.25;;;;;15.57;48.49;101478.94;5055085;28;45989;-63
2022/04/26 13:08:11;;;;;;;;;39.50;34.25;;;;;15.58;48.06;101479.81;5056005;28;45848;-62
2022/04/26 13:10:37;;;;;;;;;37.00;33.00;;;;;15.50;48.25;101461.31;5055386;28;45891;-63
2022/04/26 13:13:03;;;;;;;;;35.00;32.75;;;;;15.60;48.29;101471.66;5062867;28;46930;-62
2022/04/26 13:15:28;;;;;;;;;34.00;32.50;;;;;15.55;48.06;101459.31;5055625;28;45568;-62
2022/04/26 13:17:54;;;;;;;;;34.00;31.50;;;;;15.59;47.83;101456.50;5054279;28;45560;-63
2022/04/26 13:20:20;;;;;;;;;30.75;27.75;;;;;15.56;47.76;101450.28;5070125;27;45584;-63
2022/04/26 13:22:45;;;;;;;;;34.50;31.00;;;;;15.67;47.91;101475.84;5058181;28;48227;-62
2022/04/26 13:25:11;;;;;;;;;34.75;31.75;;;;;15.60;47.41;101447.47;5057472;28;45641;-61
2022/04/26 13:27:38;;;;;;;;;33.75;30.50;;;;;15.64;47.74;101455.34;5068665;28;45578;-61
2022/04/26 13:30:06;;;;;;;;;28.75;27.00;;;;;15.78;47.17;101470.06;5072366;28;45583;-62
2022/04/26 13:32:31;;;;;;;;;31.00;30.00;;;;;15.48;46.91;101413.88;5053695;28;48079;-62
2022/04/26 13:34:58;;;;;;;;;33.50;30.75;;;;;15.77;47.04;101444.06;5051316;28;45373;-62
2022/04/26 13:37:24;;;;;;;;;29.75;28.25;;;;;15.81;47.12;101448.41;5073968;27;45600;-62
2022/04/26 13:39:50;;;;;;;;;30.75;29.75;;;;;15.87;46.84;101461.56;5058573;28;45439;-62
2022/04/26 13:42:16;;;;;;;;;25.75;24.00;;;;;15.83;46.71;101444.69;5071351;28;46076;-62
2022/04/26 13:44:42;;;;;;;;;29.75;28.50;;;;;15.85;46.61;101453.56;5074425;28;45455;-62
2022/04/26 13:47:08;;;;;;;;;31.00;28.25;;;;;15.86;46.58;101457.16;5058163;28;45343;-62
2022/04/26 13:49:35;;;;;;;;;29.50;26.50;;;;;15.94;46.50;101465.78;5057913;28;45497;-62
2022/04/26 13:52:01;;;;;;;;;28.25;26.75;;;;;15.95;46.39;101463.94;5058025;28;46287;-62
2022/04/26 13:54:27;;;;;;;;;33.25;29.25;;;;;15.85;46.75;101434.72;5057765;28;45367;-62
2022/04/26 13:56:54;;;;;;;;;27.00;26.75;;;;;15.85;46.92;101429.34;5059399;28;45464;-62
2022/04/26 13:59:19;;;;;;;;;26.25;24.50;;;;;16.06;46.70;101450.91;5060594;28;45486;-62
2022/04/26 14:01:45;;;;;;;;;29.50;29.00;;;;;16.03;46.73;101443.81;5074587;28;48251;-62
2022/04/26 14:04:10;;;;;;;;;29.00;26.00;;;;;16.03;46.34;101433.03;5073842;28;45951;-62
2022/04/26 14:06:36;;;;;;;;;24.25;22.75;;;;;16.09;46.23;101437.31;5049877;28;45542;-62
2022/04/26 14:09:02;;;;;;;;;24.50;23.25;;;;;16.16;46.72;101443.28;5055312;28;45651;-62
2022/04/26 14:11:27;;;;;;;;;30.75;28.75;;;;;16.11;46.38;101421.94;5053507;28;46190;-62
2022/04/26 14:22:04;;;;;;;;;25.25;23.00;;;;;16.24;46.21;101417.75;5057438;28;45805;-62
2022/04/26 14:24:29;;;;;;;;;31.25;30.25;;;;;16.40;45.84;101434.06;5058024;28;45327;-62
2022/04/26 14:26:55;;;;;;;;;33.25;31.00;;;;;16.28;45.86;101416.66;5084543;27;45453;-62
2022/04/26 14:29:20;;;;;;;;;26.75;26.75;;;;;16.20;46.11;101405.34;5075212;27;45612;-62
2022/04/26 14:31:46;;;;;;;;;25.00;24.00;;;;;16.34;46.00;101423.59;5059680;28;45997;-62
2022/04/26 14:34:14;;;;;;;;;30.00;29.00;;;;;16.36;46.40;101427.09;5060959;28;45402;-62
2022/04/26 14:36:40;;;;;;;;;31.75;30.25;;;;;16.47;46.10;101432.88;5061495;28;45506;-62
2022/04/26 14:39:05;;;;;;;;;30.00;27.00;;;;;16.48;46.34;101441.81;5060660;28;45573;-62
2022/04/26 14:41:31;;;;;;;;;26.50;24.00;;;;;16.35;46.11;101419.06;5058418;28;45660;-62
2022/04/26 14:43:56;;;;;;;;;30.00;28.75;;;;;16.46;46.14;101427.56;5076525;28;46021;-62
2022/04/26 14:46:21;;;;;;;;;24.00;23.25;;;;;16.51;46.34;101427.34;5061343;28;45402;-62
2022/04/26 14:48:47;;;;;;;;;25.75;25.75;;;;;16.54;46.07;101435.25;5060021;28;45585;-62
2022/04/26 14:51:13;;;;;;;;;24.50;21.25;;;;;16.51;45.94;101430.03;5061218;28;45915;-62
2022/04/26 14:53:39;;;;;;;;;25.25;23.25;;;;;16.53;46.04;101431.69;5058808;28;45406;-64
2022/04/26 14:56:09;;;;;;;;;26.75;25.75;;;;;16.46;45.46;101430.25;5093546;27;45762;-62
2022/04/26 14:58:35;;;;;;;;;24.25;24.25;;;;;16.47;45.72;101419.41;5047879;28;45757;-62
2022/04/26 15:01:01;;;;;;;;;22.75;22.50;;;;;16.47;45.80;101422.09;5060840;28;45623;-62
2022/04/26 15:03:27;;;;;;;;;22.25;22.25;;;;;16.49;45.61;101428.28;5060739;28;45534;-62
2022/04/26 15:05:54;;;;;;;;;26.50;21.75;;;;;16.43;45.18;101409.69;5061065;28;45452;-62
2022/04/26 15:11:03;;;;;;;;;25.25;23.25;;;;;16.60;45.38;101435.00;5059204;28;45413;-62
2022/04/26 15:18:57;;;;;;;;;21.75;20.75;;;;;16.58;44.79;101437.75;5059329;28;45369;-62
2022/04/26 15:21:23;;;;;;;;;21.50;20.25;;;;;16.52;44.86;101413.78;5058344;28;46115;-62
2022/04/26 15:23:49;;;;;;;;;22.25;21.00;;;;;16.63;44.59;101435.72;5063398;28;45468;-62
2022/04/26 15:26:15;;;;;;;;;21.00;20.25;;;;;16.51;44.45;101412.03;5059568;28;45674;-62
2022/04/26 15:28:41;;;;;;;;;18.25;17.50;;;;;16.46;44.19;101397.91;5076390;28;45492;-62
2022/04/26 15:31:07;;;;;;;;;16.00;16.00;;;;;16.62;44.26;101423.19;5053518;28;47551;-62